Terminal Aerodrome Forecast
Issued by NWS

Home | Current Version | Previous Version | Text Only | Print | Product List | Glossary On
Versions: 1 2 3 4 5 6 7 8 9 10 11 12 13 14 15 16
000
FTUS45 KSLC 042340 CCA
TAFBCE
TAF COR
KBCE 042340Z 0500/0524 15012G20KT P6SM SKC
     FM050100 17008KT P6SM SKC
     FM051500 14015KT P6SM SKC
     FM051800 16020G30KT P6SM SKC=

USA.gov is the U.S. government's official web portal to all federal, state and local government web resources and services.